createdAt,value
2019-05-19T00:00:48.053Z,11.10
2019-05-19T00:03:16.772Z,11.10
2019-05-19T00:05:45.178Z,11.10
2019-05-19T00:08:14.038Z,11.20
2019-05-19T00:10:42.337Z,11.30
2019-05-19T00:13:10.746Z,11.40
2019-05-19T00:15:39.319Z,11.30
2019-05-19T00:18:07.569Z,11.20
2019-05-19T00:20:35.916Z,11.10
2019-05-19T00:23:04.215Z,11.00
2019-05-19T00:25:32.978Z,11.00
2019-05-19T00:28:01.331Z,11.00
2019-05-19T00:30:29.759Z,11.00
2019-05-19T00:32:58.038Z,11.10
2019-05-19T00:35:26.584Z,11.10
2019-05-19T00:37:55.344Z,11.10
2019-05-19T00:40:23.583Z,11.10
2019-05-19T00:42:51.908Z,11.20
2019-05-19T00:45:21.618Z,11.10
2019-05-19T00:47:49.879Z,11.10
2019-05-19T00:50:18.221Z,11.00
2019-05-19T00:52:46.548Z,11.00
2019-05-19T00:55:14.821Z,10.90
2019-05-19T00:57:43.227Z,10.90
2019-05-19T01:00:11.847Z,10.90
2019-05-19T01:02:40.203Z,10.90
2019-05-19T01:05:08.849Z,10.80
2019-05-19T01:07:37.187Z,10.80
2019-05-19T01:10:05.925Z,10.80
2019-05-19T01:12:34.262Z,10.90
2019-05-19T01:15:02.615Z,10.80
2019-05-19T01:17:30.885Z,10.80
2019-05-19T01:19:59.181Z,10.80
2019-05-19T01:22:27.445Z,10.70
2019-05-19T01:24:55.702Z,10.80
2019-05-19T01:27:23.930Z,10.80
2019-05-19T01:29:52.194Z,10.70
2019-05-19T01:32:20.519Z,10.70
2019-05-19T01:34:48.805Z,10.60
2019-05-19T01:37:17.057Z,10.50
2019-05-19T01:39:45.476Z,10.50
2019-05-19T01:42:13.912Z,10.50
2019-05-19T01:44:42.965Z,10.40
2019-05-19T01:47:11.272Z,10.50
2019-05-19T01:49:39.556Z,10.50
2019-05-19T01:52:07.815Z,10.50
2019-05-19T01:54:36.110Z,10.40
2019-05-19T01:57:04.821Z,10.40
2019-05-19T01:59:33.198Z,10.40
2019-05-19T02:02:01.613Z,10.50
2019-05-19T02:04:30.479Z,10.50
2019-05-19T02:06:58.735Z,10.50
2019-05-19T02:09:27.428Z,10.40
2019-05-19T02:11:55.706Z,10.40
2019-05-19T02:14:24.209Z,10.30
2019-05-19T02:16:53.529Z,10.30
2019-05-19T02:19:21.880Z,10.30
2019-05-19T02:21:50.115Z,10.40
2019-05-19T02:24:18.474Z,10.50
2019-05-19T02:26:46.800Z,10.40
2019-05-19T02:29:15.141Z,10.30
2019-05-19T02:31:43.405Z,10.20
2019-05-19T02:34:12.029Z,10.20
2019-05-19T02:36:40.251Z,10.20
2019-05-19T02:39:08.498Z,10.10
2019-05-19T02:41:37.388Z,10.10
2019-05-19T02:44:05.776Z,10.00
2019-05-19T02:46:34.628Z,10.00
2019-05-19T02:49:03.970Z,10.00
2019-05-19T02:51:33.829Z,10.00
2019-05-19T02:54:02.245Z,9.90
2019-05-19T02:56:31.300Z,10.00
2019-05-19T02:59:00.259Z,9.90
2019-05-19T03:01:28.564Z,9.90
2019-05-19T03:03:56.913Z,9.90
2019-05-19T03:06:25.163Z,9.80
2019-05-19T03:08:53.387Z,9.80
2019-05-19T03:11:21.628Z,9.80
2019-05-19T03:13:49.819Z,9.90
2019-05-19T03:16:18.111Z,9.90
2019-05-19T03:18:46.400Z,9.90
2019-05-19T03:21:14.652Z,9.90
2019-05-19T03:23:42.856Z,9.90
2019-05-19T03:26:11.105Z,9.80
2019-05-19T03:28:39.325Z,9.80
2019-05-19T03:31:26.609Z,9.80
2019-05-19T03:33:55.124Z,9.70
2019-05-19T03:36:23.352Z,9.80
2019-05-19T03:38:51.564Z,9.80
2019-05-19T03:41:19.847Z,9.70
2019-05-19T03:43:48.131Z,9.80
2019-05-19T03:46:16.369Z,9.80
2019-05-19T03:48:44.575Z,9.80
2019-05-19T03:51:29.196Z,9.80
2019-05-19T03:53:42.775Z,9.90
2019-05-19T03:56:10.983Z,9.80
2019-05-19T03:58:39.196Z,9.90
2019-05-19T04:01:07.421Z,9.90
2019-05-19T04:03:35.748Z,9.90
2019-05-19T04:06:04.000Z,9.90
2019-05-19T04:08:32.246Z,9.90
2019-05-19T04:11:00.553Z,10.00
2019-05-19T04:13:28.812Z,9.90
2019-05-19T04:15:57.036Z,9.90
2019-05-19T04:18:25.300Z,9.90
2019-05-19T04:20:53.482Z,10.10
2019-05-19T04:23:21.714Z,10.20
2019-05-19T04:25:50.026Z,10.60
2019-05-19T04:28:18.266Z,11.30
2019-05-19T04:30:46.548Z,11.80
2019-05-19T04:33:14.773Z,12.10
2019-05-19T04:35:43.028Z,12.90
2019-05-19T04:38:11.356Z,13.30
2019-05-19T04:40:39.637Z,13.70
2019-05-19T04:43:07.947Z,13.90
2019-05-19T04:45:36.209Z,14.80
2019-05-19T04:48:08.689Z,15.60
2019-05-19T04:50:34.490Z,15.70
2019-05-19T04:53:02.740Z,16.20
2019-05-19T04:55:31.052Z,16.40
2019-05-19T04:57:59.301Z,17.30
2019-05-19T05:00:27.521Z,18.30
2019-05-19T05:02:55.801Z,19.10
2019-05-19T05:05:24.024Z,19.50
2019-05-19T05:07:52.351Z,20.70
2019-05-19T05:10:20.785Z,21.90
2019-05-19T05:12:48.994Z,22.90
2019-05-19T05:15:17.264Z,22.80
2019-05-19T05:17:45.568Z,22.10
2019-05-19T05:20:13.811Z,21.30
2019-05-19T05:22:42.023Z,20.70
2019-05-19T05:25:10.259Z,20.00
2019-05-19T05:27:38.627Z,18.60
2019-05-19T05:30:07.126Z,17.90
2019-05-19T05:32:35.415Z,16.70
2019-05-19T05:35:04.193Z,15.90
2019-05-19T05:37:32.510Z,15.50
2019-05-19T05:40:00.834Z,15.30
2019-05-19T05:42:31.699Z,15.10
2019-05-19T05:44:59.042Z,14.70
2019-05-19T05:47:27.331Z,14.40
2019-05-19T05:49:55.551Z,14.10
2019-05-19T05:52:37.612Z,14.10
2019-05-19T05:54:53.769Z,14.00
2019-05-19T05:57:22.066Z,14.10
2019-05-19T05:59:50.355Z,14.20
2019-05-19T06:02:18.605Z,14.30
2019-05-19T06:04:46.925Z,14.40
2019-05-19T06:07:15.260Z,14.50
2019-05-19T06:09:43.560Z,14.60
2019-05-19T06:12:11.809Z,14.70
2019-05-19T06:14:40.155Z,14.70
2019-05-19T06:17:08.569Z,14.90
2019-05-19T06:19:36.922Z,15.10
2019-05-19T06:22:05.209Z,15.20
2019-05-19T06:24:33.474Z,15.30
2019-05-19T06:27:01.801Z,15.40
2019-05-19T06:29:30.046Z,15.70
2019-05-19T06:32:02.241Z,15.90
2019-05-19T06:34:30.645Z,15.90
2019-05-19T06:36:59.219Z,15.90
2019-05-19T06:39:27.543Z,15.90
2019-05-19T06:41:55.833Z,15.90
2019-05-19T06:44:24.128Z,16.00
2019-05-19T06:46:52.789Z,16.30
2019-05-19T06:49:21.366Z,16.30
2019-05-19T06:51:49.632Z,16.40
2019-05-19T06:54:17.943Z,16.50
2019-05-19T06:56:46.505Z,16.70
2019-05-19T06:59:15.752Z,16.80
2019-05-19T07:01:43.992Z,17.00
2019-05-19T07:04:13.539Z,17.20
2019-05-19T07:06:41.831Z,17.00
2019-05-19T07:09:12.230Z,17.10
2019-05-19T07:11:40.472Z,17.00
2019-05-19T07:14:08.780Z,17.00
2019-05-19T07:16:37.011Z,17.00
2019-05-19T07:19:05.437Z,16.90
2019-05-19T07:21:33.730Z,17.00
2019-05-19T07:24:02.018Z,17.30
2019-05-19T07:26:30.295Z,17.50
2019-05-19T07:28:59.092Z,17.80
2019-05-19T07:31:27.515Z,17.90
2019-05-19T07:33:55.766Z,18.20
2019-05-19T07:36:24.015Z,18.50
2019-05-19T07:38:52.316Z,18.80
2019-05-19T07:41:20.550Z,19.00
2019-05-19T07:43:48.870Z,19.30
2019-05-19T07:46:17.183Z,19.60
2019-05-19T07:48:45.479Z,19.70
2019-05-19T07:51:13.733Z,19.80
2019-05-19T07:53:43.208Z,19.70
2019-05-19T07:56:11.796Z,19.70
2019-05-19T07:58:40.152Z,19.70
2019-05-19T08:01:08.447Z,19.80
2019-05-19T08:03:36.837Z,19.90
2019-05-19T08:06:05.184Z,19.90
2019-05-19T08:08:33.501Z,19.90
2019-05-19T08:11:01.934Z,20.20
2019-05-19T08:13:30.273Z,20.30
2019-05-19T08:15:58.646Z,20.40
2019-05-19T08:18:26.904Z,20.40
2019-05-19T08:20:55.226Z,20.20
2019-05-19T08:23:23.582Z,20.40
2019-05-19T08:25:51.909Z,20.60
2019-05-19T08:28:20.169Z,20.30
2019-05-19T08:30:48.441Z,20.10
2019-05-19T08:33:16.829Z,20.20
2019-05-19T08:35:45.348Z,20.10
2019-05-19T08:38:13.976Z,20.10
2019-05-19T08:40:42.418Z,20.30
2019-05-19T08:43:10.753Z,20.50
2019-05-19T08:45:39.156Z,20.40
2019-05-19T08:48:07.479Z,20.60
2019-05-19T08:50:35.771Z,20.80
2019-05-19T08:53:04.088Z,21.10
2019-05-19T08:55:32.597Z,21.40
2019-05-19T08:58:00.857Z,21.40
2019-05-19T09:00:29.204Z,21.40
2019-05-19T09:02:57.626Z,21.60
2019-05-19T09:05:26.154Z,21.70
2019-05-19T09:07:54.396Z,21.60
2019-05-19T09:10:22.660Z,21.50
2019-05-19T09:12:51.034Z,21.50
2019-05-19T09:15:19.376Z,21.70
2019-05-19T09:17:47.713Z,22.00
2019-05-19T09:20:16.153Z,21.90
2019-05-19T09:22:45.721Z,21.50
2019-05-19T09:25:14.049Z,21.30
2019-05-19T09:27:42.395Z,21.50
2019-05-19T09:30:10.747Z,21.70
2019-05-19T09:32:39.058Z,21.80
2019-05-19T09:35:07.530Z,21.60
2019-05-19T09:37:35.896Z,21.60
2019-05-19T09:40:04.930Z,21.40
2019-05-19T09:42:33.339Z,21.60
2019-05-19T09:45:01.711Z,21.60
2019-05-19T09:47:30.073Z,21.80
2019-05-19T09:49:58.836Z,22.00
2019-05-19T09:52:27.426Z,21.70
2019-05-19T09:54:55.820Z,21.50
2019-05-19T09:57:24.751Z,21.40
2019-05-19T09:59:55.306Z,21.40
2019-05-19T10:02:23.620Z,21.60
2019-05-19T10:04:52.007Z,21.70
2019-05-19T10:07:20.490Z,21.70
2019-05-19T10:10:17.256Z,21.80
2019-05-19T10:12:45.634Z,21.80
2019-05-19T10:15:14.458Z,21.70
2019-05-19T10:17:42.761Z,21.60
2019-05-19T10:20:11.735Z,21.50
2019-05-19T10:22:41.192Z,21.40
2019-05-19T10:25:21.768Z,21.30
2019-05-19T10:27:40.909Z,21.30
2019-05-19T10:30:10.387Z,21.20
2019-05-19T10:32:38.797Z,21.30
2019-05-19T10:35:07.801Z,21.20
2019-05-19T10:37:36.192Z,21.30
2019-05-19T10:40:06.485Z,21.30
2019-05-19T10:42:35.157Z,21.10
2019-05-19T10:45:03.963Z,21.00
2019-05-19T10:47:32.313Z,21.10
2019-05-19T10:50:01.550Z,20.90
2019-05-19T10:52:30.376Z,20.70
2019-05-19T10:54:58.865Z,20.60
2019-05-19T10:57:27.261Z,20.60
2019-05-19T10:59:55.725Z,20.40
2019-05-19T11:02:24.439Z,20.10
2019-05-19T11:04:52.932Z,19.70
2019-05-19T11:07:22.229Z,19.60
2019-05-19T11:09:50.671Z,19.20
2019-05-19T11:12:19.100Z,19.00
2019-05-19T11:14:47.500Z,18.80
2019-05-19T11:17:17.451Z,18.60
2019-05-19T11:19:45.905Z,18.30
2019-05-19T11:22:14.239Z,18.10
2019-05-19T11:24:43.139Z,18.10
2019-05-19T11:27:11.474Z,18.10
2019-05-19T11:29:39.960Z,17.90
2019-05-19T11:32:08.479Z,17.70
2019-05-19T11:34:38.425Z,17.50
2019-05-19T11:37:07.530Z,17.20
2019-05-19T11:39:36.263Z,16.90
2019-05-19T11:42:04.723Z,16.80
2019-05-19T11:44:33.174Z,16.60
2019-05-19T11:47:01.593Z,16.40
2019-05-19T11:49:30.108Z,16.10
2019-05-19T11:51:58.419Z,16.00
2019-05-19T11:54:26.837Z,15.70
2019-05-19T11:56:55.195Z,15.40
2019-05-19T11:59:23.521Z,15.20
2019-05-19T12:01:51.868Z,14.80
2019-05-19T12:04:20.232Z,14.70
2019-05-19T12:06:48.624Z,14.50
2019-05-19T12:09:17.114Z,14.40
2019-05-19T12:11:45.578Z,14.30
2019-05-19T12:14:14.059Z,14.20
2019-05-19T12:16:46.974Z,14.10
2019-05-19T12:19:15.400Z,14.00
2019-05-19T12:21:43.738Z,14.00
2019-05-19T12:24:12.413Z,14.00
2019-05-19T12:26:40.847Z,14.00
2019-05-19T12:29:12.232Z,14.00
2019-05-19T12:31:40.634Z,14.00
2019-05-19T12:34:09.102Z,13.90
2019-05-19T12:36:37.600Z,13.90
2019-05-19T12:39:06.630Z,13.90
2019-05-19T12:41:35.204Z,13.90
2019-05-19T12:44:03.624Z,14.00
2019-05-19T12:46:32.161Z,13.90
2019-05-19T12:49:00.495Z,13.90
2019-05-19T12:51:29.070Z,13.90
2019-05-19T12:53:57.434Z,13.90
2019-05-19T12:56:38.767Z,13.90
2019-05-19T12:58:56.034Z,13.80
2019-05-19T13:01:24.503Z,13.70
2019-05-19T13:03:52.936Z,13.70
2019-05-19T13:06:21.484Z,13.80
2019-05-19T13:08:50.258Z,13.80
2019-05-19T13:11:18.681Z,13.80
2019-05-19T13:13:47.071Z,13.90
2019-05-19T13:16:15.410Z,14.00
2019-05-19T13:18:44.005Z,14.00
2019-05-19T13:21:12.925Z,14.00
2019-05-19T13:23:41.388Z,14.00
2019-05-19T13:26:09.844Z,14.10
2019-05-19T13:28:38.271Z,14.20
2019-05-19T13:31:06.749Z,14.30
2019-05-19T13:33:35.453Z,14.30
2019-05-19T13:36:03.864Z,14.30
2019-05-19T13:38:32.170Z,14.40
2019-05-19T13:41:00.564Z,14.20
2019-05-19T13:43:29.147Z,14.20
2019-05-19T13:45:57.631Z,14.20
2019-05-19T13:48:26.119Z,14.30
2019-05-19T13:50:54.578Z,14.40
2019-05-19T13:53:22.963Z,14.50
2019-05-19T13:55:51.456Z,14.50
2019-05-19T13:58:19.825Z,14.60
2019-05-19T14:00:48.223Z,14.60
2019-05-19T14:03:16.792Z,14.70
2019-05-19T14:05:45.232Z,14.80
2019-05-19T14:08:14.008Z,15.00
2019-05-19T14:10:42.553Z,15.10
2019-05-19T14:13:11.504Z,14.90
2019-05-19T14:15:40.464Z,14.80
2019-05-19T14:18:08.971Z,14.80
2019-05-19T14:20:37.449Z,14.90
2019-05-19T14:23:05.964Z,14.90
2019-05-19T14:25:34.359Z,15.00
2019-05-19T14:28:02.890Z,14.90
2019-05-19T14:30:31.270Z,15.00
2019-05-19T14:32:59.761Z,15.10
2019-05-19T14:35:29.866Z,15.30
2019-05-19T14:37:58.872Z,15.50
2019-05-19T14:40:27.252Z,15.60
2019-05-19T14:42:59.338Z,15.70
2019-05-19T14:45:27.746Z,15.80
2019-05-19T14:47:56.133Z,16.00
2019-05-19T14:50:26.646Z,16.10
2019-05-19T14:52:55.128Z,16.20
2019-05-19T14:55:23.537Z,16.20
2019-05-19T14:57:52.135Z,16.30
2019-05-19T15:00:21.389Z,16.50
2019-05-19T15:02:49.758Z,16.60
2019-05-19T15:05:18.539Z,16.80
2019-05-19T15:07:47.009Z,16.90
2019-05-19T15:10:15.933Z,16.90
2019-05-19T15:12:44.475Z,17.00
2019-05-19T15:15:13.040Z,17.10
2019-05-19T15:17:41.473Z,17.20
2019-05-19T15:20:10.468Z,17.20
2019-05-19T15:22:38.859Z,17.10
2019-05-19T15:25:08.465Z,17.10
2019-05-19T15:27:36.847Z,17.00
2019-05-19T15:30:12.893Z,17.10
2019-05-19T15:32:35.276Z,17.00
2019-05-19T15:35:03.763Z,17.00
2019-05-19T15:37:32.087Z,16.90
2019-05-19T15:40:00.487Z,16.90
2019-05-19T15:42:30.945Z,17.00
2019-05-19T15:44:59.620Z,17.00
2019-05-19T15:47:28.064Z,17.10
2019-05-19T15:49:56.463Z,17.10
2019-05-19T15:52:25.096Z,17.10
2019-05-19T15:54:53.445Z,17.10
2019-05-19T15:57:21.902Z,17.10
2019-05-19T15:59:50.217Z,17.00
2019-05-19T16:02:18.611Z,16.90
2019-05-19T16:04:47.025Z,16.80
2019-05-19T16:07:15.493Z,16.80
2019-05-19T16:09:43.926Z,16.70
2019-05-19T16:12:12.352Z,16.70
2019-05-19T16:14:40.794Z,16.80
2019-05-19T16:17:11.731Z,16.80
2019-05-19T16:19:40.143Z,16.80
2019-05-19T16:22:08.596Z,17.00
2019-05-19T16:24:37.072Z,17.10
2019-05-19T16:27:06.183Z,17.20
2019-05-19T16:29:35.574Z,17.20
2019-05-19T16:32:04.046Z,17.40
2019-05-19T16:34:32.462Z,17.40
2019-05-19T16:37:00.883Z,17.30
2019-05-19T16:39:29.506Z,17.40
2019-05-19T16:41:57.899Z,17.50
2019-05-19T16:44:26.472Z,17.70
2019-05-19T16:46:54.950Z,17.70
2019-05-19T16:49:23.374Z,17.80
2019-05-19T16:51:51.894Z,17.90
2019-05-19T16:54:25.279Z,17.80
2019-05-19T16:56:53.768Z,17.70
2019-05-19T16:59:22.166Z,17.70
2019-05-19T17:01:50.685Z,17.80
2019-05-19T17:04:19.692Z,17.90
2019-05-19T17:06:48.069Z,18.00
2019-05-19T17:09:17.162Z,18.00
2019-05-19T17:11:45.655Z,18.10
2019-05-19T17:14:14.009Z,18.10
2019-05-19T17:16:42.437Z,18.30
2019-05-19T17:19:10.851Z,18.30
2019-05-19T17:21:39.310Z,18.30
2019-05-19T17:24:07.887Z,18.30
2019-05-19T17:26:36.251Z,18.20
2019-05-19T17:29:05.051Z,18.00
2019-05-19T17:31:33.673Z,17.90
2019-05-19T17:34:02.068Z,17.80
2019-05-19T17:36:34.948Z,17.70
2019-05-19T17:39:04.906Z,17.70
2019-05-19T17:41:33.366Z,17.50
2019-05-19T17:44:01.853Z,17.40
2019-05-19T17:46:30.367Z,17.40
2019-05-19T17:49:00.374Z,17.40
2019-05-19T17:51:29.152Z,17.30
2019-05-19T17:53:59.278Z,17.30
2019-05-19T17:56:29.429Z,17.20
2019-05-19T17:58:59.281Z,17.20
2019-05-19T18:01:27.811Z,17.10
2019-05-19T18:03:56.753Z,17.10
2019-05-19T18:06:28.012Z,17.00
2019-05-19T18:08:55.471Z,16.90
2019-05-19T18:11:23.916Z,16.90
2019-05-19T18:13:53.299Z,16.90
2019-05-19T18:16:22.915Z,17.00
2019-05-19T18:18:51.561Z,17.00
2019-05-19T18:21:21.173Z,17.10
2019-05-19T18:23:52.515Z,16.90
2019-05-19T18:26:25.285Z,16.80
2019-05-19T18:28:53.799Z,16.70
2019-05-19T18:31:24.994Z,16.70
2019-05-19T18:33:54.278Z,16.70
2019-05-19T18:36:24.537Z,16.60
2019-05-19T18:38:57.013Z,16.50
2019-05-19T18:41:25.706Z,16.40
2019-05-19T18:43:56.405Z,16.30
2019-05-19T18:46:25.926Z,16.20
2019-05-19T18:48:55.121Z,16.10
2019-05-19T18:51:24.260Z,16.20
2019-05-19T18:53:53.005Z,16.20
2019-05-19T18:56:22.581Z,16.10
2019-05-19T18:58:51.680Z,16.10
2019-05-19T19:01:20.189Z,16.10
2019-05-19T19:03:49.158Z,16.10
2019-05-19T19:06:18.805Z,16.00
2019-05-19T19:08:47.403Z,16.00
2019-05-19T19:11:16.353Z,15.90
2019-05-19T19:13:46.569Z,15.80
2019-05-19T19:16:16.238Z,15.70
2019-05-19T19:18:44.804Z,15.70
2019-05-19T19:21:13.469Z,15.50
2019-05-19T19:23:42.755Z,15.40
2019-05-19T19:26:11.551Z,15.40
2019-05-19T19:28:39.944Z,15.30
2019-05-19T19:31:08.542Z,15.20
2019-05-19T19:33:37.526Z,15.10
2019-05-19T19:36:06.675Z,15.00
2019-05-19T19:38:36.754Z,14.90
2019-05-19T19:41:07.433Z,14.90
2019-05-19T19:43:36.508Z,14.90
2019-05-19T19:46:05.436Z,14.90
2019-05-19T19:48:36.888Z,14.90
2019-05-19T19:51:06.138Z,14.80
2019-05-19T19:53:34.757Z,14.70
2019-05-19T19:56:03.222Z,14.60
2019-05-19T19:58:31.739Z,14.60
2019-05-19T20:01:00.377Z,14.60
2019-05-19T20:03:30.678Z,14.60
2019-05-19T20:05:59.474Z,14.50
2019-05-19T20:08:27.857Z,14.40
2019-05-19T20:10:56.345Z,14.30
2019-05-19T20:13:24.754Z,14.20
2019-05-19T20:15:53.092Z,14.10
2019-05-19T20:18:21.466Z,14.10
2019-05-19T20:20:49.954Z,14.10
2019-05-19T20:23:18.491Z,14.20
2019-05-19T20:25:46.935Z,14.20
2019-05-19T20:28:15.257Z,14.20
2019-05-19T20:30:43.534Z,14.10
2019-05-19T20:33:11.919Z,14.00
2019-05-19T20:35:40.359Z,13.90
2019-05-19T20:38:08.814Z,13.90
2019-05-19T20:40:37.170Z,13.90
2019-05-19T20:43:05.535Z,14.00
2019-05-19T20:45:34.041Z,14.00
2019-05-19T20:48:02.568Z,14.10
2019-05-19T20:50:30.984Z,14.00
2019-05-19T20:52:59.391Z,13.90
2019-05-19T20:55:27.754Z,13.90
2019-05-19T20:57:56.242Z,13.90
2019-05-19T21:00:24.538Z,13.80
2019-05-19T21:02:52.896Z,13.80
2019-05-19T21:05:21.198Z,13.70
2019-05-19T21:07:49.484Z,13.70
2019-05-19T21:10:17.853Z,13.70
2019-05-19T21:12:46.297Z,13.70
2019-05-19T21:15:14.683Z,13.60
2019-05-19T21:17:43.169Z,13.60
2019-05-19T21:20:11.645Z,13.50
2019-05-19T21:22:39.936Z,13.40
2019-05-19T21:25:08.284Z,13.30
2019-05-19T21:27:36.574Z,13.20
2019-05-19T21:30:05.076Z,13.20
2019-05-19T21:32:33.401Z,13.10
2019-05-19T21:35:01.710Z,13.10
2019-05-19T21:37:30.035Z,13.10
2019-05-19T21:39:58.368Z,13.10
2019-05-19T21:42:26.704Z,13.10
2019-05-19T21:44:55.072Z,13.10
2019-05-19T21:47:23.528Z,13.00
2019-05-19T21:49:52.066Z,12.90
2019-05-19T21:52:20.310Z,12.90
2019-05-19T21:54:48.633Z,12.80
2019-05-19T21:57:17.004Z,12.70
2019-05-19T21:59:45.247Z,12.60
2019-05-19T22:02:13.616Z,12.50
2019-05-19T22:04:41.889Z,12.40
2019-05-19T22:07:14.574Z,12.40
2019-05-19T22:09:42.848Z,12.40
2019-05-19T22:12:11.159Z,12.30
2019-05-19T22:14:39.448Z,12.30
2019-05-19T22:17:07.745Z,12.30
2019-05-19T22:19:35.997Z,12.30
2019-05-19T22:22:04.265Z,12.20
2019-05-19T22:24:32.585Z,12.00
2019-05-19T22:27:00.846Z,12.00
2019-05-19T22:29:29.157Z,12.00
2019-05-19T22:31:57.486Z,12.10
2019-05-19T22:34:25.732Z,12.10
2019-05-19T22:36:54.019Z,12.20
2019-05-19T22:39:22.234Z,12.10
2019-05-19T22:41:50.538Z,12.10
2019-05-19T22:44:20.330Z,12.10
2019-05-19T22:46:48.751Z,12.10
2019-05-19T22:49:17.098Z,12.00
2019-05-19T22:51:45.349Z,12.10
2019-05-19T22:54:13.561Z,12.10
2019-05-19T22:56:41.841Z,12.00
2019-05-19T22:59:19.216Z,12.00
2019-05-19T23:01:51.485Z,12.00
2019-05-19T23:04:10.056Z,12.00
2019-05-19T23:06:38.389Z,12.00
2019-05-19T23:09:06.619Z,12.00
2019-05-19T23:11:35.240Z,12.10
2019-05-19T23:14:03.474Z,12.00
2019-05-19T23:16:31.683Z,12.00
2019-05-19T23:19:00.010Z,12.10
2019-05-19T23:21:28.251Z,12.10
2019-05-19T23:23:56.495Z,12.10
2019-05-19T23:26:24.728Z,12.00
2019-05-19T23:28:52.971Z,12.10
2019-05-19T23:31:21.238Z,12.20
2019-05-19T23:33:49.433Z,12.20
2019-05-19T23:36:17.715Z,12.20
2019-05-19T23:38:45.948Z,12.30
2019-05-19T23:41:14.177Z,12.30
2019-05-19T23:43:42.477Z,12.30
2019-05-19T23:46:10.688Z,12.40
2019-05-19T23:48:38.931Z,12.40
2019-05-19T23:51:07.166Z,12.40
2019-05-19T23:53:35.396Z,12.40
2019-05-19T23:56:03.634Z,12.40
2019-05-19T23:58:31.856Z,12.40
